createdAt,value
2023-02-02T00:01:52.386Z,18.73
2023-02-02T00:04:42.049Z,19.58
2023-02-02T00:07:09.888Z,15.02
2023-02-02T00:09:37.866Z,11.35
2023-02-02T00:12:05.857Z,15.93
2023-02-02T00:14:33.603Z,15.05
2023-02-02T00:17:01.374Z,10.88
2023-02-02T00:19:33.964Z,13.40
2023-02-02T00:22:01.839Z,8.65
2023-02-02T00:24:29.557Z,11.80
2023-02-02T00:26:58.568Z,11.80
2023-02-02T00:29:28.709Z,15.70
2023-02-02T00:31:56.467Z,11.45
2023-02-02T00:34:24.413Z,17.15
2023-02-02T00:36:52.444Z,17.60
2023-02-02T00:39:22.601Z,14.13
2023-02-02T00:41:50.562Z,18.15
2023-02-02T00:44:38.236Z,18.15
2023-02-02T00:47:06.157Z,18.40
2023-02-02T00:49:34.008Z,12.90
2023-02-02T00:52:01.927Z,6.38
2023-02-02T00:54:29.618Z,14.18
2023-02-02T00:56:57.633Z,16.65
2023-02-02T00:59:25.440Z,10.82
2023-02-02T01:01:53.282Z,13.77
2023-02-02T01:04:21.029Z,14.75
2023-02-02T01:06:48.743Z,16.10
2023-02-02T01:09:16.484Z,13.20
2023-02-02T01:11:44.348Z,11.80
2023-02-02T01:14:12.113Z,11.20
2023-02-02T01:16:40.134Z,15.60
2023-02-02T01:19:07.991Z,15.82
2023-02-02T01:21:35.888Z,17.60
2023-02-02T01:24:03.767Z,12.48
2023-02-02T01:26:31.640Z,15.05
2023-02-02T01:28:59.475Z,11.25
2023-02-02T01:31:27.414Z,18.58
2023-02-02T01:33:56.126Z,17.25
2023-02-02T01:36:24.390Z,14.82
2023-02-02T01:38:52.365Z,18.08
2023-02-02T01:41:22.332Z,18.58
2023-02-02T01:43:55.418Z,18.30
2023-02-02T01:46:34.153Z,18.33
2023-02-02T01:49:15.298Z,13.95
2023-02-02T01:52:10.486Z,16.08
2023-02-02T01:54:47.447Z,14.98
2023-02-02T01:57:17.960Z,15.05
2023-02-02T01:59:45.858Z,9.30
2023-02-02T02:02:13.717Z,16.55
2023-02-02T02:04:42.767Z,17.90
2023-02-02T02:07:10.612Z,18.30
2023-02-02T02:09:38.619Z,19.52
2023-02-02T02:12:15.796Z,18.55
2023-02-02T02:15:04.437Z,14.45
2023-02-02T02:17:41.941Z,14.90
2023-02-02T02:20:56.789Z,14.30
2023-02-02T02:23:52.537Z,13.48
2023-02-02T02:26:34.925Z,11.20
2023-02-02T02:29:43.297Z,11.77
2023-02-02T02:32:36.907Z,12.23
2023-02-02T02:35:26.687Z,9.32
2023-02-02T02:38:18.453Z,11.45
2023-02-02T02:40:54.457Z,12.50
2023-02-02T02:43:27.903Z,12.65
2023-02-02T02:45:56.519Z,10.20
2023-02-02T02:48:25.293Z,10.70
2023-02-02T02:50:53.167Z,17.80
2023-02-02T02:53:23.903Z,3.60
2023-02-02T02:55:55.405Z,15.85
2023-02-02T02:58:36.311Z,12.80
2023-02-02T03:01:15.004Z,14.55
2023-02-02T03:04:03.983Z,13.90
2023-02-02T03:06:53.145Z,13.65
2023-02-02T03:09:23.584Z,13.23
2023-02-02T03:11:51.362Z,16.77
2023-02-02T03:14:19.179Z,19.10
2023-02-02T03:16:47.012Z,20.40
2023-02-02T03:19:14.694Z,16.80
2023-02-02T03:21:42.515Z,19.55
2023-02-02T03:24:10.348Z,20.52
2023-02-02T03:26:38.250Z,21.17
2023-02-02T03:29:06.036Z,9.73
2023-02-02T03:31:33.903Z,24.60
2023-02-02T03:34:01.813Z,17.85
2023-02-02T03:36:29.580Z,23.75
2023-02-02T03:38:57.375Z,24.17
2023-02-02T03:41:25.418Z,24.52
2023-02-02T03:43:53.291Z,20.13
2023-02-02T03:46:21.156Z,26.10
2023-02-02T03:48:48.897Z,26.02
2023-02-02T03:51:16.697Z,27.45
2023-02-02T03:53:49.904Z,29.27
2023-02-02T03:56:19.485Z,28.05
2023-02-02T03:58:47.813Z,18.55
2023-02-02T04:01:17.021Z,30.25
2023-02-02T04:03:46.639Z,27.27
2023-02-02T04:06:14.397Z,31.13
2023-02-02T04:08:42.147Z,30.52
2023-02-02T04:11:13.051Z,30.63
2023-02-02T04:13:41.154Z,20.83
2023-02-02T04:16:09.055Z,28.75
2023-02-02T04:18:39.921Z,32.00
2023-02-02T04:21:07.917Z,27.20
2023-02-02T04:23:35.968Z,27.33
2023-02-02T04:26:03.975Z,30.00
2023-02-02T04:28:31.846Z,31.98
2023-02-02T04:30:59.761Z,23.33
2023-02-02T04:33:28.175Z,27.27
2023-02-02T04:35:55.849Z,23.25
2023-02-02T04:38:23.774Z,28.95
2023-02-02T04:40:51.604Z,23.08
2023-02-02T04:43:19.386Z,25.63
2023-02-02T04:45:47.332Z,24.30
2023-02-02T04:48:15.080Z,24.75
2023-02-02T04:50:42.868Z,27.02
2023-02-02T04:53:10.558Z,27.35
2023-02-02T04:55:39.240Z,25.35
2023-02-02T04:58:07.185Z,23.33
2023-02-02T05:00:35.146Z,23.52
2023-02-02T05:03:03.069Z,27.90
2023-02-02T05:05:31.150Z,23.58
2023-02-02T05:08:00.230Z,26.00
2023-02-02T05:10:28.187Z,20.02
2023-02-02T05:12:56.243Z,25.40
2023-02-02T05:15:24.500Z,25.27
2023-02-02T05:17:52.425Z,18.38
2023-02-02T05:20:20.147Z,19.08
2023-02-02T05:22:50.325Z,18.65
2023-02-02T05:25:18.328Z,17.77
2023-02-02T05:27:46.936Z,20.25
2023-02-02T05:30:15.303Z,22.00
2023-02-02T05:32:43.128Z,22.27
2023-02-02T05:35:11.119Z,20.88
2023-02-02T05:37:41.525Z,30.80
2023-02-02T05:40:10.268Z,26.67
2023-02-02T05:42:38.109Z,26.70
2023-02-02T05:45:06.411Z,26.35
2023-02-02T05:47:36.095Z,30.80
2023-02-02T05:50:04.126Z,24.58
2023-02-02T05:52:31.946Z,33.75
2023-02-02T05:54:59.725Z,26.63
2023-02-02T05:57:28.422Z,26.63
2023-02-02T05:59:56.381Z,16.77
2023-02-02T06:02:24.261Z,23.67
2023-02-02T06:04:51.923Z,27.80
2023-02-02T06:07:19.769Z,25.90
2023-02-02T06:09:47.669Z,20.30
2023-02-02T06:12:15.335Z,20.65
2023-02-02T06:14:43.080Z,28.02
2023-02-02T06:17:11.035Z,29.83
2023-02-02T06:19:38.916Z,27.13
2023-02-02T06:22:07.463Z,21.45
2023-02-02T06:24:35.191Z,24.08
2023-02-02T06:27:03.033Z,26.35
2023-02-02T06:29:30.815Z,24.80
2023-02-02T06:31:58.818Z,26.98
2023-02-02T06:34:26.765Z,28.42
2023-02-02T06:36:54.561Z,24.05
2023-02-02T06:39:22.373Z,25.05
2023-02-02T06:41:52.411Z,22.27
2023-02-02T06:44:21.476Z,26.67
2023-02-02T06:46:49.258Z,23.98
2023-02-02T06:49:16.986Z,31.95
2023-02-02T06:51:44.952Z,30.35
2023-02-02T06:54:12.740Z,32.65
2023-02-02T06:56:40.827Z,32.55
2023-02-02T06:59:08.686Z,29.60
2023-02-02T07:01:36.526Z,32.00
2023-02-02T07:04:04.387Z,32.15
2023-02-02T07:06:32.273Z,31.98
2023-02-02T07:09:02.807Z,32.10
2023-02-02T07:11:40.326Z,27.67
2023-02-02T07:14:11.585Z,28.40
2023-02-02T07:16:39.444Z,29.02
2023-02-02T07:19:07.396Z,27.58
2023-02-02T07:21:37.770Z,31.38
2023-02-02T07:24:06.120Z,27.27
2023-02-02T07:26:35.016Z,30.42
2023-02-02T07:29:04.885Z,30.98
2023-02-02T07:31:35.854Z,29.60
2023-02-02T07:34:04.497Z,21.65
2023-02-02T07:36:32.087Z,33.97
2023-02-02T07:39:00.212Z,28.38
2023-02-02T07:41:28.365Z,31.17
2023-02-02T07:43:56.106Z,29.60
2023-02-02T07:46:23.882Z,31.67
2023-02-02T07:48:55.193Z,23.45
2023-02-02T07:51:23.104Z,22.27
2023-02-02T07:53:54.991Z,23.40
2023-02-02T07:56:25.165Z,26.88
2023-02-02T07:58:53.891Z,27.52
2023-02-02T08:01:23.332Z,25.23
2023-02-02T08:03:51.360Z,25.23
2023-02-02T08:06:21.607Z,27.17
2023-02-02T08:08:49.563Z,27.23
2023-02-02T08:11:18.804Z,19.77
2023-02-02T08:13:52.652Z,24.80
2023-02-02T08:16:20.671Z,24.40
2023-02-02T08:18:48.564Z,28.23
2023-02-02T08:21:16.475Z,29.77
2023-02-02T08:23:44.510Z,23.75
2023-02-02T08:26:19.166Z,27.60
2023-02-02T08:28:49.104Z,26.95
2023-02-02T08:31:22.074Z,27.88
2023-02-02T08:33:50.131Z,22.98
2023-02-02T08:36:19.428Z,29.75
2023-02-02T08:38:47.350Z,28.15
2023-02-02T08:41:17.066Z,19.15
2023-02-02T08:43:45.052Z,24.52
2023-02-02T08:46:14.611Z,24.85
2023-02-02T08:48:42.594Z,24.95
2023-02-02T08:51:15.546Z,24.77
2023-02-02T08:53:43.677Z,25.00
2023-02-02T08:56:13.142Z,19.15
2023-02-02T08:58:41.128Z,19.55
2023-02-02T09:01:12.128Z,20.98
2023-02-02T09:03:40.801Z,24.65
2023-02-02T09:06:15.762Z,16.38
2023-02-02T09:08:43.708Z,21.52
2023-02-02T09:11:18.741Z,21.50
2023-02-02T09:13:47.690Z,19.00
2023-02-02T09:16:17.419Z,13.85
2023-02-02T09:18:45.320Z,17.45
2023-02-02T09:21:15.025Z,16.23
2023-02-02T09:23:43.362Z,15.00
2023-02-02T09:26:21.692Z,15.98
2023-02-02T09:28:54.056Z,17.55
2023-02-02T09:33:49.791Z,12.63
2023-02-02T09:36:22.292Z,12.25
2023-02-02T09:38:50.937Z,16.00
2023-02-02T09:41:39.400Z,16.60
2023-02-02T09:44:29.027Z,18.58
2023-02-02T09:47:21.431Z,15.90
2023-02-02T09:50:26.035Z,14.68
2023-02-02T09:53:03.124Z,16.20
2023-02-02T09:55:43.768Z,16.60
2023-02-02T09:58:16.187Z,10.90
2023-02-02T10:01:02.137Z,14.52
2023-02-02T10:03:40.472Z,14.05
2023-02-02T10:06:25.231Z,14.20
2023-02-02T10:09:09.657Z,15.18
2023-02-02T10:11:49.619Z,11.23
2023-02-02T10:14:26.702Z,9.00
2023-02-02T10:16:55.656Z,10.90
2023-02-02T10:19:29.344Z,9.02
2023-02-02T10:22:07.799Z,10.70
2023-02-02T10:24:38.219Z,10.23
2023-02-02T10:27:09.447Z,10.40
2023-02-02T10:29:54.031Z,2.70
2023-02-02T10:32:32.300Z,4.80
2023-02-02T10:35:13.107Z,2.33
2023-02-02T10:38:06.557Z,7.40
2023-02-02T10:40:57.152Z,10.73
2023-02-02T10:43:50.072Z,8.70
2023-02-02T10:46:34.180Z,6.85
2023-02-02T10:49:14.008Z,9.68
2023-02-02T10:51:42.036Z,7.13
2023-02-02T10:54:25.269Z,8.18
2023-02-02T10:56:54.358Z,7.72
2023-02-02T10:59:25.427Z,9.10
2023-02-02T11:01:53.232Z,8.60
2023-02-02T11:04:39.319Z,7.47
2023-02-02T11:07:07.117Z,9.25
2023-02-02T11:09:40.550Z,7.75
2023-02-02T11:12:19.671Z,8.98
2023-02-02T11:14:55.340Z,7.38
2023-02-02T11:17:26.607Z,8.40
2023-02-02T11:19:56.358Z,9.17
2023-02-02T11:22:37.232Z,5.43
2023-02-02T11:25:07.407Z,6.50
2023-02-02T11:27:41.977Z,7.05
2023-02-02T11:30:18.987Z,9.27
2023-02-02T11:32:49.936Z,6.80
2023-02-02T11:35:23.590Z,9.05
2023-02-02T11:38:21.918Z,9.93
2023-02-02T11:41:04.675Z,9.30
2023-02-02T11:43:41.883Z,10.90
2023-02-02T11:46:23.901Z,13.13
2023-02-02T11:49:10.757Z,11.40
2023-02-02T11:51:38.626Z,14.20
2023-02-02T11:54:22.506Z,14.90
2023-02-02T11:56:51.173Z,15.50
2023-02-02T11:59:32.555Z,15.98
2023-02-02T12:02:23.492Z,15.57
2023-02-02T12:04:56.802Z,10.80
2023-02-02T12:07:28.551Z,15.80
2023-02-02T12:10:27.773Z,13.88
2023-02-02T12:13:01.719Z,12.80
2023-02-02T12:15:52.929Z,9.93
2023-02-02T12:18:35.726Z,9.45
2023-02-02T12:21:13.327Z,9.48
2023-02-02T12:23:47.211Z,11.20
2023-02-02T12:26:33.536Z,9.52
2023-02-02T12:29:11.838Z,10.85
2023-02-02T12:31:46.351Z,9.02
2023-02-02T12:34:44.573Z,11.25
2023-02-02T12:37:32.116Z,8.98
2023-02-02T12:40:24.635Z,10.45
2023-02-02T12:43:11.894Z,11.25
2023-02-02T12:46:10.798Z,9.05
2023-02-02T12:48:51.822Z,8.48
2023-02-02T12:51:32.053Z,9.05
2023-02-02T12:54:34.761Z,4.63
2023-02-02T12:57:23.638Z,8.20
2023-02-02T13:00:35.664Z,9.10
2023-02-02T13:03:16.605Z,8.68
2023-02-02T13:05:56.342Z,6.50
2023-02-02T13:08:42.566Z,9.25
2023-02-02T13:11:30.393Z,6.57
2023-02-02T13:14:06.484Z,6.57
2023-02-02T13:16:34.342Z,7.82
2023-02-02T13:19:10.519Z,7.68
2023-02-02T13:21:38.389Z,6.32
2023-02-02T13:24:06.534Z,8.95
2023-02-02T13:26:39.267Z,8.30
2023-02-02T13:29:25.651Z,5.32
2023-02-02T13:32:35.508Z,7.15
2023-02-02T13:35:17.795Z,7.53
2023-02-02T13:40:34.803Z,3.88
2023-02-02T13:43:40.764Z,4.45
2023-02-02T13:46:27.335Z,5.82
2023-02-02T13:49:06.788Z,7.30
2023-02-02T13:51:40.520Z,8.70
2023-02-02T13:54:45.951Z,6.20
2023-02-02T13:57:32.289Z,6.78
2023-02-02T14:00:15.208Z,10.23
2023-02-02T14:02:47.435Z,9.98
2023-02-02T14:05:39.079Z,12.55
2023-02-02T14:08:08.737Z,15.80
2023-02-02T14:11:00.394Z,15.13
2023-02-02T14:14:10.821Z,16.98
2023-02-02T14:16:38.694Z,15.02
2023-02-02T14:19:09.645Z,15.60
2023-02-02T14:21:37.500Z,15.82
2023-02-02T14:24:24.348Z,18.48
2023-02-02T14:26:57.805Z,16.95
2023-02-02T14:29:40.140Z,16.35
2023-02-02T14:32:07.886Z,17.42
2023-02-02T14:34:42.966Z,13.82
2023-02-02T14:37:28.566Z,14.57
2023-02-02T14:39:59.548Z,15.85
2023-02-02T14:43:15.427Z,16.27
2023-02-02T14:45:44.346Z,21.00
2023-02-02T14:48:27.567Z,24.65
2023-02-02T14:50:59.734Z,30.77
2023-02-02T14:53:38.535Z,31.25
2023-02-02T14:56:11.364Z,23.02
2023-02-02T14:58:52.798Z,33.13
2023-02-02T15:01:24.069Z,29.80
2023-02-02T15:03:58.440Z,27.65
2023-02-02T15:06:33.595Z,38.28
2023-02-02T15:09:33.933Z,36.17
2023-02-02T15:12:04.899Z,33.65
2023-02-02T15:14:55.981Z,34.67
2023-02-02T15:17:42.154Z,41.75
2023-02-02T15:20:45.255Z,39.60
2023-02-02T15:23:27.258Z,37.10
2023-02-02T15:26:04.724Z,36.17
2023-02-02T15:28:43.764Z,36.33
2023-02-02T15:31:28.646Z,29.02
2023-02-02T15:33:59.300Z,29.13
2023-02-02T15:36:35.943Z,25.27
2023-02-02T15:39:18.575Z,16.05
2023-02-02T15:41:46.378Z,24.55
2023-02-02T15:44:28.258Z,19.05
2023-02-02T15:46:57.141Z,10.48
2023-02-02T15:49:33.848Z,11.85
2023-02-02T15:52:11.191Z,8.77
2023-02-02T15:54:39.142Z,8.50
2023-02-02T15:57:37.653Z,7.45
2023-02-02T16:00:44.240Z,6.88
2023-02-02T16:03:20.061Z,7.13
2023-02-02T16:05:52.567Z,5.88
2023-02-02T16:08:35.857Z,6.15
2023-02-02T16:11:06.041Z,8.60
2023-02-02T16:13:34.688Z,5.97
2023-02-02T16:16:23.789Z,8.10
2023-02-02T16:19:17.237Z,6.82
2023-02-02T16:21:59.334Z,6.05
2023-02-02T16:27:03.353Z,6.13
2023-02-02T16:29:31.260Z,7.57
2023-02-02T16:31:59.139Z,6.22
2023-02-02T16:34:42.114Z,5.53
2023-02-02T16:37:27.832Z,5.78
2023-02-02T16:39:56.848Z,5.53
2023-02-02T16:42:29.776Z,6.50
2023-02-02T16:44:58.494Z,7.28
2023-02-02T16:47:26.305Z,6.28
2023-02-02T16:50:09.432Z,7.70
2023-02-02T16:53:03.998Z,7.13
2023-02-02T16:55:47.819Z,5.55
2023-02-02T16:58:20.094Z,6.53
2023-02-02T17:01:13.562Z,7.32
2023-02-02T17:03:47.959Z,6.40
2023-02-02T17:06:16.403Z,4.90
2023-02-02T17:08:44.286Z,8.48
2023-02-02T17:11:25.248Z,7.35
2023-02-02T17:13:53.868Z,8.00
2023-02-02T17:16:23.184Z,8.40
2023-02-02T17:18:51.618Z,8.38
2023-02-02T17:21:23.733Z,5.93
2023-02-02T17:23:52.121Z,8.18
2023-02-02T17:26:20.142Z,7.93
2023-02-02T17:28:47.985Z,7.32
2023-02-02T17:31:16.454Z,8.88
2023-02-02T17:33:44.488Z,7.45
2023-02-02T17:36:13.627Z,10.10
2023-02-02T17:38:41.488Z,19.85
2023-02-02T17:41:10.653Z,22.52
2023-02-02T17:43:38.464Z,27.95
2023-02-02T17:46:06.532Z,38.38
2023-02-02T17:48:34.785Z,32.40
2023-02-02T17:51:06.847Z,41.55
2023-02-02T17:53:34.948Z,25.98
2023-02-02T17:56:02.806Z,71.53
2023-02-02T17:58:30.797Z,62.78
2023-02-02T18:00:59.719Z,51.60
2023-02-02T18:03:29.016Z,45.63
2023-02-02T18:05:58.237Z,53.55
2023-02-02T18:08:26.056Z,48.53
2023-02-02T18:10:53.765Z,30.90
2023-02-02T18:13:22.458Z,50.75
2023-02-02T18:15:50.766Z,37.33
2023-02-02T18:18:18.589Z,45.38
2023-02-02T18:20:47.671Z,39.17
2023-02-02T18:23:15.688Z,39.17
2023-02-02T18:25:43.637Z,37.40
2023-02-02T18:28:11.684Z,38.67
2023-02-02T18:30:40.329Z,30.00
2023-02-02T18:33:09.992Z,19.63
2023-02-02T18:35:42.027Z,36.45
2023-02-02T18:40:38.412Z,27.10
2023-02-02T18:43:06.194Z,43.38
2023-02-02T18:45:34.212Z,48.70
2023-02-02T18:48:02.138Z,52.33
2023-02-02T18:50:29.969Z,50.63
2023-02-02T18:52:57.772Z,46.38
2023-02-02T18:55:25.891Z,36.63
2023-02-02T18:57:53.897Z,33.00
2023-02-02T19:00:22.552Z,40.50
2023-02-02T19:02:50.411Z,20.08
2023-02-02T19:05:36.409Z,27.77
2023-02-02T19:08:06.239Z,16.85
2023-02-02T19:10:34.012Z,37.70
2023-02-02T19:13:18.700Z,24.30
2023-02-02T19:15:50.011Z,32.30
2023-02-02T19:18:20.206Z,31.85
2023-02-02T19:20:49.381Z,33.70
2023-02-02T19:23:21.276Z,36.38
2023-02-02T19:28:29.648Z,28.00
2023-02-02T19:30:59.245Z,32.80
2023-02-02T19:33:35.489Z,27.83
2023-02-02T19:36:03.305Z,29.70
2023-02-02T19:38:31.145Z,27.83
2023-02-02T19:40:58.987Z,25.67
2023-02-02T19:43:30.139Z,33.08
2023-02-02T19:45:59.190Z,26.92
2023-02-02T19:48:31.766Z,25.25
2023-02-02T19:51:00.872Z,30.75
2023-02-02T19:53:36.368Z,31.15
2023-02-02T19:56:21.256Z,28.02
2023-02-02T19:58:49.105Z,33.47
2023-02-02T20:01:20.404Z,31.13
2023-02-02T20:03:48.265Z,29.23
2023-02-02T20:06:26.719Z,33.40
2023-02-02T20:08:54.481Z,36.25
2023-02-02T20:11:45.104Z,37.33
2023-02-02T20:14:18.941Z,37.45
2023-02-02T20:17:14.595Z,36.47
2023-02-02T20:19:42.749Z,20.27
2023-02-02T20:22:24.449Z,26.15
2023-02-02T20:24:52.345Z,35.35
2023-02-02T20:27:21.975Z,36.15
2023-02-02T20:29:50.855Z,35.65
2023-02-02T20:32:22.148Z,27.50
2023-02-02T20:34:50.556Z,16.05
2023-02-02T20:37:24.131Z,28.83
2023-02-02T20:39:59.104Z,21.85
2023-02-02T20:42:26.857Z,22.15
2023-02-02T20:44:54.846Z,26.17
2023-02-02T20:47:22.900Z,20.77
2023-02-02T20:49:50.825Z,18.67
2023-02-02T20:52:23.886Z,22.80
2023-02-02T20:54:52.214Z,16.00
2023-02-02T20:57:20.046Z,17.75
2023-02-02T20:59:47.913Z,15.07
2023-02-02T21:02:19.604Z,16.23
2023-02-02T21:04:48.083Z,19.65
2023-02-02T21:07:19.414Z,14.52
2023-02-02T21:09:48.695Z,16.15
2023-02-02T21:12:16.934Z,21.10
2023-02-02T21:14:48.064Z,19.23
2023-02-02T21:17:16.250Z,16.60
2023-02-02T21:19:44.416Z,23.10
2023-02-02T21:22:12.729Z,21.80
2023-02-02T21:24:40.798Z,22.23
2023-02-02T21:27:09.461Z,23.85
2023-02-02T21:29:37.482Z,21.58
2023-02-02T21:32:05.331Z,25.52
2023-02-02T21:34:33.337Z,21.85
2023-02-02T21:37:01.186Z,20.75
2023-02-02T21:39:36.164Z,19.17
2023-02-02T21:42:10.007Z,22.27
2023-02-02T21:44:39.552Z,18.92
2023-02-02T21:47:34.683Z,20.52
2023-02-02T21:50:29.743Z,21.35
2023-02-02T21:53:14.350Z,23.33
2023-02-02T21:55:42.211Z,15.95
2023-02-02T21:58:18.928Z,9.40
2023-02-02T22:00:46.918Z,25.25
2023-02-02T22:03:35.303Z,20.48
2023-02-02T22:06:27.712Z,16.77
2023-02-02T22:09:01.859Z,37.47
2023-02-02T22:11:35.152Z,24.25
2023-02-02T22:14:21.088Z,22.48
2023-02-02T22:16:54.262Z,28.23
2023-02-02T22:19:48.560Z,25.63
2023-02-02T22:22:21.784Z,16.50
2023-02-02T22:24:59.133Z,14.18
2023-02-02T22:27:33.139Z,10.50
2023-02-02T22:30:03.438Z,16.88
2023-02-02T22:32:31.325Z,17.13
2023-02-02T22:34:59.121Z,19.23
2023-02-02T22:37:26.923Z,13.75
2023-02-02T22:39:54.645Z,12.15
2023-02-02T22:42:22.422Z,9.40
2023-02-02T22:44:50.978Z,14.20
2023-02-02T22:47:18.789Z,11.30
2023-02-02T22:49:46.507Z,23.20
2023-02-02T22:52:14.261Z,14.38
2023-02-02T22:54:42.091Z,20.05
2023-02-02T22:57:10.166Z,18.15
2023-02-02T22:59:38.012Z,19.45
2023-02-02T23:02:05.730Z,25.80
2023-02-02T23:04:33.488Z,11.95
2023-02-02T23:07:01.417Z,21.63
2023-02-02T23:09:29.235Z,23.35
2023-02-02T23:11:56.967Z,19.95
2023-02-02T23:14:24.793Z,20.15
2023-02-02T23:16:52.583Z,25.40
2023-02-02T23:19:20.533Z,20.58
2023-02-02T23:21:48.382Z,21.77
2023-02-02T23:24:16.159Z,22.70
2023-02-02T23:26:43.882Z,22.50
2023-02-02T23:29:11.673Z,27.05
2023-02-02T23:31:39.474Z,15.80
2023-02-02T23:34:07.344Z,17.30
2023-02-02T23:36:35.189Z,18.98
2023-02-02T23:39:02.941Z,17.90
2023-02-02T23:41:30.764Z,10.95
2023-02-02T23:43:58.561Z,10.73
2023-02-02T23:46:26.732Z,10.35
2023-02-02T23:48:54.992Z,9.70
2023-02-02T23:51:22.736Z,13.63
2023-02-02T23:53:50.576Z,16.23
2023-02-02T23:56:18.422Z,13.45
2023-02-02T23:58:46.215Z,19.55
